createdAt,value
2018-05-21T00:01:47.155Z,20.10
2018-05-21T00:04:14.715Z,20.10
2018-05-21T00:06:42.284Z,20.10
2018-05-21T00:09:09.812Z,20.10
2018-05-21T00:11:38.122Z,20.00
2018-05-21T00:14:05.884Z,20.00
2018-05-21T00:16:33.443Z,20.00
2018-05-21T00:19:00.992Z,20.00
2018-05-21T00:21:28.558Z,19.90
2018-05-21T00:23:56.082Z,19.90
2018-05-21T00:26:24.390Z,19.90
2018-05-21T00:28:51.930Z,19.90
2018-05-21T00:31:19.465Z,19.80
2018-05-21T00:33:47.004Z,19.80
2018-05-21T00:36:14.633Z,19.80
2018-05-21T00:38:42.254Z,19.70
2018-05-21T00:41:10.546Z,19.60
2018-05-21T00:43:38.083Z,19.60
2018-05-21T00:46:05.719Z,19.60
2018-05-21T00:48:33.254Z,19.60
2018-05-21T00:51:00.879Z,19.50
2018-05-21T00:53:29.174Z,19.40
2018-05-21T00:55:56.726Z,19.40
2018-05-21T00:58:24.257Z,19.40
2018-05-21T01:00:52.554Z,19.30
2018-05-21T01:03:20.139Z,19.30
2018-05-21T01:05:47.658Z,19.30
2018-05-21T01:08:15.967Z,19.20
2018-05-21T01:10:43.511Z,19.20
2018-05-21T01:13:11.056Z,19.20
2018-05-21T01:15:39.443Z,19.00
2018-05-21T01:18:06.916Z,19.00
2018-05-21T01:20:34.444Z,19.00
2018-05-21T01:23:02.749Z,18.90
2018-05-21T01:25:30.278Z,18.90
2018-05-21T01:27:58.735Z,18.90
2018-05-21T01:30:26.289Z,18.90
2018-05-21T01:32:53.874Z,18.90
2018-05-21T01:35:22.223Z,18.90
2018-05-21T01:37:49.847Z,18.80
2018-05-21T01:40:17.372Z,18.90
2018-05-21T01:42:45.688Z,18.80
2018-05-21T01:45:13.319Z,18.80
2018-05-21T01:47:41.643Z,18.60
2018-05-21T01:50:09.187Z,18.60
2018-05-21T01:52:36.738Z,18.60
2018-05-21T01:55:05.071Z,18.70
2018-05-21T01:57:32.587Z,18.70
2018-05-21T02:00:00.130Z,18.70
2018-05-21T02:02:27.803Z,18.70
2018-05-21T02:04:56.110Z,18.80
2018-05-21T02:07:23.641Z,18.80
2018-05-21T02:09:51.237Z,18.80
2018-05-21T02:12:18.767Z,18.80
2018-05-21T02:14:46.294Z,18.80
2018-05-21T02:17:14.014Z,18.70
2018-05-21T02:19:41.538Z,18.70
2018-05-21T02:22:09.079Z,18.70
2018-05-21T02:24:36.703Z,18.70
2018-05-21T02:27:04.358Z,18.60
2018-05-21T02:29:31.808Z,18.60
2018-05-21T02:31:59.343Z,18.60
2018-05-21T02:34:26.896Z,18.50
2018-05-21T02:36:54.421Z,18.50
2018-05-21T02:39:22.278Z,18.40
2018-05-21T02:41:50.660Z,18.50
2018-05-21T02:44:18.958Z,18.50
2018-05-21T02:46:46.494Z,18.50
2018-05-21T02:49:14.787Z,18.50
2018-05-21T02:51:42.370Z,18.50
2018-05-21T02:54:09.894Z,18.50
2018-05-21T02:56:37.434Z,18.50
2018-05-21T02:59:05.954Z,18.50
2018-05-21T03:01:33.484Z,18.50
2018-05-21T03:04:01.788Z,18.40
2018-05-21T03:06:29.312Z,18.40
2018-05-21T03:08:57.627Z,18.40
2018-05-21T03:11:25.142Z,18.40
2018-05-21T03:13:53.447Z,18.40
2018-05-21T03:16:21.172Z,18.40
2018-05-21T03:18:48.702Z,18.40
2018-05-21T03:21:16.234Z,18.40
2018-05-21T03:23:43.842Z,18.40
2018-05-21T03:26:11.391Z,18.40
2018-05-21T03:28:38.918Z,18.40
2018-05-21T03:31:06.589Z,18.30
2018-05-21T03:33:34.126Z,18.30
2018-05-21T03:36:01.654Z,18.30
2018-05-21T03:38:29.982Z,18.30
2018-05-21T03:40:57.573Z,18.30
2018-05-21T03:43:25.130Z,18.30
2018-05-21T03:45:52.659Z,18.30
2018-05-21T03:48:20.351Z,18.30
2018-05-21T03:50:47.901Z,18.20
2018-05-21T03:53:15.431Z,18.20
2018-05-21T03:55:44.939Z,18.20
2018-05-21T03:58:24.527Z,18.20
2018-05-21T04:01:04.040Z,18.20
2018-05-21T04:03:43.672Z,18.30
2018-05-21T04:06:11.198Z,18.30
2018-05-21T04:08:38.738Z,18.30
2018-05-21T04:11:07.167Z,18.30
2018-05-21T04:13:34.935Z,18.30
2018-05-21T04:16:02.471Z,18.40
2018-05-21T04:18:30.003Z,18.40
2018-05-21T04:20:58.494Z,18.40
2018-05-21T04:23:26.031Z,18.40
2018-05-21T04:25:54.325Z,18.40
2018-05-21T04:28:21.865Z,18.40
2018-05-21T04:30:50.183Z,18.40
2018-05-21T04:33:17.706Z,18.40
2018-05-21T04:35:46.029Z,18.60
2018-05-21T04:38:13.641Z,18.60
2018-05-21T04:40:41.181Z,18.60
2018-05-21T04:43:08.713Z,18.70
2018-05-21T04:45:36.319Z,18.70
2018-05-21T04:48:04.634Z,18.90
2018-05-21T04:50:32.175Z,18.90
2018-05-21T04:52:59.715Z,19.00
2018-05-21T04:55:28.123Z,19.20
2018-05-21T04:57:55.654Z,19.20
2018-05-21T05:00:23.265Z,19.30
2018-05-21T05:02:50.886Z,19.20
2018-05-21T05:05:18.430Z,19.30
2018-05-21T05:07:46.727Z,19.30
2018-05-21T05:10:14.404Z,19.30
2018-05-21T05:12:41.938Z,19.40
2018-05-21T05:15:10.252Z,19.60
2018-05-21T05:17:37.804Z,19.60
2018-05-21T05:20:05.387Z,19.70
2018-05-21T05:22:32.911Z,19.80
2018-05-21T05:25:00.498Z,20.00
2018-05-21T05:27:28.085Z,20.10
2018-05-21T05:29:55.618Z,20.20
2018-05-21T05:32:23.163Z,20.30
2018-05-21T05:34:50.931Z,20.40
2018-05-21T05:37:18.476Z,20.50
2018-05-21T05:39:46.019Z,20.50
2018-05-21T05:42:13.722Z,20.60
2018-05-21T05:44:41.266Z,20.60
2018-05-21T05:47:08.799Z,20.70
2018-05-21T05:49:37.212Z,20.80
2018-05-21T05:52:04.845Z,20.90
2018-05-21T05:54:32.324Z,21.00
2018-05-21T05:57:00.626Z,21.10
2018-05-21T05:59:28.302Z,21.10
2018-05-21T06:01:56.860Z,21.30
2018-05-21T06:04:24.398Z,21.40
2018-05-21T06:06:51.962Z,21.40
2018-05-21T06:09:19.506Z,21.40
2018-05-21T06:11:48.043Z,21.50
2018-05-21T06:14:15.601Z,21.50
2018-05-21T06:16:43.194Z,21.60
2018-05-21T06:19:19.666Z,21.70
2018-05-21T06:21:47.258Z,21.90
2018-05-21T06:24:14.928Z,21.90
2018-05-21T06:26:42.634Z,22.00
2018-05-21T06:29:10.926Z,22.30
2018-05-21T06:31:38.510Z,22.30
2018-05-21T06:34:06.155Z,22.30
2018-05-21T06:36:33.592Z,22.40
2018-05-21T06:39:03.148Z,22.50
2018-05-21T06:41:30.707Z,22.70
2018-05-21T06:43:58.523Z,22.80
2018-05-21T06:46:27.180Z,23.00
2018-05-21T06:48:55.379Z,23.20
2018-05-21T06:51:23.684Z,23.60
2018-05-21T06:53:51.343Z,23.60
2018-05-21T06:56:18.922Z,23.80
2018-05-21T06:58:46.458Z,24.00
2018-05-21T07:01:14.866Z,24.20
2018-05-21T07:03:42.640Z,24.20
2018-05-21T07:06:10.179Z,24.30
2018-05-21T07:08:37.698Z,24.40
2018-05-21T07:11:05.833Z,24.40
2018-05-21T07:13:33.365Z,24.40
2018-05-21T07:16:00.967Z,24.70
2018-05-21T07:18:29.435Z,24.80
2018-05-21T07:20:56.970Z,25.10
2018-05-21T07:23:24.499Z,25.20
2018-05-21T07:25:52.195Z,25.20
2018-05-21T07:28:19.734Z,25.50
2018-05-21T07:30:47.269Z,25.70
2018-05-21T07:33:14.849Z,25.80
2018-05-21T07:35:42.404Z,25.80
2018-05-21T07:38:10.121Z,25.90
2018-05-21T07:40:37.698Z,25.90
2018-05-21T07:43:05.475Z,25.80
2018-05-21T07:45:33.773Z,25.80
2018-05-21T07:48:01.319Z,25.70
2018-05-21T07:50:29.039Z,25.90
2018-05-21T07:52:56.610Z,26.10
2018-05-21T07:55:24.918Z,26.50
2018-05-21T07:57:52.510Z,26.50
2018-05-21T08:00:20.055Z,26.60
2018-05-21T08:02:47.634Z,26.20
2018-05-21T08:05:15.242Z,26.10
2018-05-21T08:07:42.775Z,26.00
2018-05-21T08:10:10.363Z,26.10
2018-05-21T08:12:37.899Z,26.20
2018-05-21T08:15:05.453Z,26.10
2018-05-21T08:17:33.016Z,26.10
2018-05-21T08:20:01.340Z,26.20
2018-05-21T08:22:32.167Z,26.20
2018-05-21T08:24:59.811Z,26.30
2018-05-21T08:27:27.429Z,26.40
2018-05-21T08:29:55.065Z,26.50
2018-05-21T08:32:22.611Z,26.60
2018-05-21T08:34:51.047Z,26.90
2018-05-21T08:37:18.599Z,26.90
2018-05-21T08:39:46.163Z,27.00
2018-05-21T08:42:13.858Z,27.10
2018-05-21T08:44:41.384Z,27.10
2018-05-21T08:47:09.770Z,27.50
2018-05-21T08:49:38.707Z,27.70
2018-05-21T08:52:06.247Z,27.70
2018-05-21T08:54:33.782Z,27.60
2018-05-21T08:57:02.975Z,27.80
2018-05-21T08:59:31.278Z,27.80
2018-05-21T09:01:58.847Z,27.80
2018-05-21T09:04:26.402Z,28.00
2018-05-21T09:06:53.940Z,28.10
2018-05-21T09:09:21.510Z,28.20
2018-05-21T09:11:49.062Z,28.30
2018-05-21T09:14:16.630Z,28.20
2018-05-21T09:16:44.191Z,28.30
2018-05-21T09:19:11.750Z,28.40
2018-05-21T09:21:39.311Z,28.60
2018-05-21T09:24:07.045Z,28.70
2018-05-21T09:26:34.606Z,28.80
2018-05-21T09:29:02.158Z,28.90
2018-05-21T09:31:29.727Z,28.80
2018-05-21T09:33:57.292Z,28.80
2018-05-21T09:36:24.855Z,28.90
2018-05-21T09:38:52.403Z,28.90
2018-05-21T09:41:19.972Z,28.70
2018-05-21T09:43:47.558Z,29.00
2018-05-21T09:46:15.110Z,29.10
2018-05-21T09:48:42.736Z,29.30
2018-05-21T09:51:10.267Z,29.50
2018-05-21T09:53:38.603Z,29.90
2018-05-21T09:56:06.258Z,30.00
2018-05-21T09:58:33.876Z,29.90
2018-05-21T10:01:02.194Z,29.60
2018-05-21T10:03:29.761Z,29.60
2018-05-21T10:05:57.314Z,29.80
2018-05-21T10:08:24.887Z,30.00
2018-05-21T10:10:52.451Z,30.30
2018-05-21T10:13:20.023Z,30.30
2018-05-21T10:15:47.588Z,30.30
2018-05-21T10:18:15.143Z,30.50
2018-05-21T10:20:42.718Z,30.60
2018-05-21T10:23:11.072Z,30.60
2018-05-21T10:25:38.646Z,30.50
2018-05-21T10:28:06.287Z,30.50
2018-05-21T10:30:33.859Z,30.40
2018-05-21T10:33:02.326Z,30.30
2018-05-21T10:35:30.089Z,30.50
2018-05-21T10:37:57.671Z,30.60
2018-05-21T10:40:25.221Z,30.80
2018-05-21T10:42:52.795Z,30.80
2018-05-21T10:45:21.125Z,30.90
2018-05-21T10:47:48.683Z,30.90
2018-05-21T10:50:16.238Z,31.20
2018-05-21T10:52:44.844Z,31.20
2018-05-21T10:55:12.392Z,31.40
2018-05-21T10:57:40.052Z,31.40
2018-05-21T11:00:07.533Z,31.40
2018-05-21T11:02:35.499Z,31.20
2018-05-21T11:05:03.047Z,31.30
2018-05-21T11:07:30.591Z,31.50
2018-05-21T11:09:58.422Z,31.60
2018-05-21T11:12:26.806Z,31.80
2018-05-21T11:14:54.367Z,31.80
2018-05-21T11:17:22.873Z,32.00
2018-05-21T11:19:50.418Z,32.00
2018-05-21T11:22:18.001Z,31.90
2018-05-21T11:24:45.606Z,31.70
2018-05-21T11:27:13.143Z,31.80
2018-05-21T11:29:40.698Z,32.00
2018-05-21T11:32:08.256Z,32.10
2018-05-21T11:34:36.549Z,32.20
2018-05-21T11:37:04.110Z,32.30
2018-05-21T11:39:31.667Z,32.30
2018-05-21T11:41:59.350Z,32.20
2018-05-21T11:44:27.727Z,31.90
2018-05-21T11:46:56.043Z,31.70
2018-05-21T11:49:23.607Z,31.70
2018-05-21T11:51:51.427Z,31.70
2018-05-21T11:54:19.027Z,31.70
2018-05-21T11:56:46.590Z,31.80
2018-05-21T11:59:14.157Z,31.90
2018-05-21T12:01:41.722Z,31.80
2018-05-21T12:04:09.281Z,31.80
2018-05-21T12:06:37.666Z,31.90
2018-05-21T12:09:06.382Z,32.10
2018-05-21T12:11:34.702Z,32.50
2018-05-21T12:14:02.344Z,32.40
2018-05-21T12:16:29.898Z,32.80
2018-05-21T12:18:57.475Z,33.00
2018-05-21T12:21:25.026Z,33.30
2018-05-21T12:23:52.649Z,33.50
2018-05-21T12:26:20.194Z,33.60
2018-05-21T12:28:48.610Z,33.60
2018-05-21T12:31:16.293Z,33.60
2018-05-21T12:33:44.191Z,33.60
2018-05-21T12:36:11.738Z,33.60
2018-05-21T12:38:39.298Z,33.40
2018-05-21T12:41:06.935Z,33.40
2018-05-21T12:43:34.499Z,33.50
2018-05-21T12:46:02.071Z,33.50
2018-05-21T12:48:29.679Z,33.60
2018-05-21T12:50:57.222Z,33.60
2018-05-21T12:53:24.770Z,33.80
2018-05-21T12:55:52.438Z,34.00
2018-05-21T12:58:19.987Z,34.00
2018-05-21T13:00:47.541Z,33.90
2018-05-21T13:03:15.109Z,34.00
2018-05-21T13:05:42.829Z,34.10
2018-05-21T13:08:10.387Z,34.30
2018-05-21T13:10:37.950Z,34.40
2018-05-21T13:13:05.638Z,34.40
2018-05-21T13:15:33.196Z,34.40
2018-05-21T13:18:00.748Z,34.10
2018-05-21T13:20:28.499Z,33.70
2018-05-21T13:22:56.048Z,33.20
2018-05-21T13:25:23.600Z,32.70
2018-05-21T13:27:51.242Z,32.50
2018-05-21T13:30:19.571Z,32.70
2018-05-21T13:32:47.118Z,32.70
2018-05-21T13:35:14.691Z,33.00
2018-05-21T13:37:42.246Z,33.30
2018-05-21T13:40:09.803Z,33.50
2018-05-21T13:42:37.376Z,33.60
2018-05-21T13:45:04.925Z,33.80
2018-05-21T13:47:32.497Z,33.80
2018-05-21T13:50:00.091Z,33.60
2018-05-21T13:52:28.635Z,33.00
2018-05-21T13:54:56.911Z,32.70
2018-05-21T13:57:24.466Z,32.60
2018-05-21T13:59:52.038Z,32.20
2018-05-21T14:02:19.599Z,32.00
2018-05-21T14:04:47.146Z,31.90
2018-05-21T14:07:14.827Z,32.00
2018-05-21T14:09:42.387Z,32.20
2018-05-21T14:12:09.967Z,32.50
2018-05-21T14:14:38.302Z,32.70
2018-05-21T14:17:06.061Z,32.70
2018-05-21T14:19:33.607Z,32.80
2018-05-21T14:22:01.166Z,32.90
2018-05-21T14:24:28.725Z,32.90
2018-05-21T14:26:56.297Z,32.90
2018-05-21T14:29:23.864Z,32.70
2018-05-21T14:31:51.422Z,32.30
2018-05-21T14:34:18.972Z,32.20
2018-05-21T14:36:46.534Z,32.30
2018-05-21T14:39:14.123Z,32.50
2018-05-21T14:41:41.689Z,32.50
2018-05-21T14:44:10.014Z,32.10
2018-05-21T14:46:37.589Z,32.10
2018-05-21T14:49:05.150Z,31.60
2018-05-21T14:51:32.710Z,31.20
2018-05-21T14:54:00.262Z,31.10
2018-05-21T14:56:27.862Z,31.20
2018-05-21T14:58:55.420Z,31.50
2018-05-21T15:01:22.980Z,31.70
2018-05-21T15:03:51.311Z,31.90
2018-05-21T15:06:18.879Z,31.90
2018-05-21T15:08:46.426Z,31.90
2018-05-21T15:11:14.082Z,31.90
2018-05-21T15:13:41.642Z,32.00
2018-05-21T15:16:09.246Z,32.10
2018-05-21T15:18:36.953Z,32.20
2018-05-21T15:21:04.508Z,32.20
2018-05-21T15:23:32.065Z,31.90
2018-05-21T15:25:59.748Z,32.00
2018-05-21T15:28:27.312Z,32.20
2018-05-21T15:30:54.869Z,32.30
2018-05-21T15:33:22.548Z,32.50
2018-05-21T15:35:50.104Z,32.50
2018-05-21T15:38:17.656Z,32.60
2018-05-21T15:40:45.214Z,32.70
2018-05-21T15:43:12.820Z,32.60
2018-05-21T15:45:40.337Z,32.50
2018-05-21T15:48:07.894Z,32.20
2018-05-21T15:50:35.451Z,31.90
2018-05-21T15:53:03.020Z,31.50
2018-05-21T15:55:30.576Z,31.30
2018-05-21T15:57:58.276Z,31.30
2018-05-21T16:00:25.818Z,31.30
2018-05-21T16:02:53.386Z,31.20
2018-05-21T16:05:21.710Z,30.80
2018-05-21T16:07:49.276Z,30.80
2018-05-21T16:10:16.847Z,30.50
2018-05-21T16:12:44.447Z,30.30
2018-05-21T16:15:12.788Z,29.90
2018-05-21T16:17:40.339Z,29.90
2018-05-21T16:20:08.006Z,29.80
2018-05-21T16:22:35.570Z,29.80
2018-05-21T16:25:03.119Z,29.70
2018-05-21T16:27:30.684Z,29.60
2018-05-21T16:29:58.234Z,29.60
2018-05-21T16:32:25.815Z,29.70
2018-05-21T16:34:53.387Z,29.70
2018-05-21T16:37:21.746Z,29.80
2018-05-21T16:39:49.327Z,29.80
2018-05-21T16:42:16.897Z,29.80
2018-05-21T16:44:45.209Z,29.70
2018-05-21T16:47:12.775Z,29.70
2018-05-21T16:49:40.322Z,29.70
2018-05-21T16:52:07.895Z,29.70
2018-05-21T16:54:35.470Z,29.60
2018-05-21T16:57:03.035Z,29.30
2018-05-21T16:59:30.621Z,29.10
2018-05-21T17:01:58.182Z,29.10
2018-05-21T17:04:26.540Z,29.00
2018-05-21T17:06:54.115Z,29.00
2018-05-21T17:09:21.767Z,28.70
2018-05-21T17:11:49.330Z,28.30
2018-05-21T17:14:16.965Z,28.10
2018-05-21T17:16:44.671Z,27.90
2018-05-21T17:19:12.928Z,27.20
2018-05-21T17:21:40.482Z,27.20
2018-05-21T17:24:08.038Z,27.00
2018-05-21T17:26:35.581Z,26.60
2018-05-21T17:29:03.167Z,26.40
2018-05-21T17:31:30.703Z,26.30
2018-05-21T17:33:58.256Z,26.20
2018-05-21T17:36:25.788Z,26.20
2018-05-21T17:38:54.096Z,26.20
2018-05-21T17:41:21.879Z,26.20
2018-05-21T17:43:49.408Z,26.20
2018-05-21T17:46:16.940Z,26.20
2018-05-21T17:48:45.229Z,26.00
2018-05-21T17:51:12.763Z,26.00
2018-05-21T17:53:40.298Z,25.90
2018-05-21T17:56:07.870Z,25.70
2018-05-21T17:58:35.573Z,25.50
2018-05-21T18:01:04.787Z,25.00
2018-05-21T18:03:32.350Z,25.00
2018-05-21T18:06:00.138Z,24.90
2018-05-21T18:08:27.671Z,24.90
2018-05-21T18:10:55.205Z,24.90
2018-05-21T18:13:22.836Z,24.90
2018-05-21T18:15:50.358Z,24.90
2018-05-21T18:18:17.894Z,24.90
2018-05-21T18:20:45.425Z,24.90
2018-05-21T18:23:13.859Z,25.00
2018-05-21T18:25:41.411Z,24.90
2018-05-21T18:28:08.947Z,24.90
2018-05-21T18:30:37.536Z,24.90
2018-05-21T18:33:07.179Z,24.80
2018-05-21T18:35:34.722Z,24.80
2018-05-21T18:38:02.266Z,24.80
2018-05-21T18:40:29.928Z,24.80
2018-05-21T18:42:57.468Z,24.80
2018-05-21T18:45:25.007Z,24.80
2018-05-21T18:47:53.316Z,24.80
2018-05-21T18:50:20.902Z,24.80
2018-05-21T18:52:49.441Z,24.80
2018-05-21T18:55:16.988Z,24.80
2018-05-21T18:57:45.287Z,24.80
2018-05-21T19:00:12.852Z,24.70
2018-05-21T19:02:41.151Z,24.60
2018-05-21T19:05:08.702Z,24.60
2018-05-21T19:07:37.085Z,24.40
2018-05-21T19:10:04.641Z,24.40
2018-05-21T19:12:32.954Z,24.30
2018-05-21T19:15:00.475Z,24.30
2018-05-21T19:17:28.040Z,24.30
2018-05-21T19:19:55.594Z,24.30
2018-05-21T19:22:23.133Z,24.20
2018-05-21T19:24:50.840Z,24.10
2018-05-21T19:27:18.366Z,24.10
2018-05-21T19:29:45.919Z,24.00
2018-05-21T19:32:13.648Z,23.90
2018-05-21T19:34:41.969Z,23.90
2018-05-21T19:37:09.542Z,23.90
2018-05-21T19:39:37.187Z,23.90
2018-05-21T19:42:04.718Z,23.90
2018-05-21T19:44:32.260Z,23.90
2018-05-21T19:47:00.553Z,23.70
2018-05-21T19:49:28.103Z,23.70
2018-05-21T19:51:56.407Z,23.60
2018-05-21T19:54:23.938Z,23.60
2018-05-21T19:56:51.487Z,23.50
2018-05-21T19:59:19.039Z,23.50
2018-05-21T20:01:46.560Z,23.40
2018-05-21T20:04:14.417Z,23.30
2018-05-21T20:06:41.978Z,23.30
2018-05-21T20:09:09.508Z,23.20
2018-05-21T20:11:37.118Z,23.10
2018-05-21T20:14:04.662Z,23.10
2018-05-21T20:16:32.185Z,23.00
2018-05-21T20:19:00.341Z,23.00
2018-05-21T20:21:28.821Z,22.90
2018-05-21T20:23:56.366Z,22.90
2018-05-21T20:26:23.890Z,22.90
2018-05-21T20:28:51.597Z,22.80
2018-05-21T20:31:19.904Z,22.60
2018-05-21T20:33:47.441Z,22.60
2018-05-21T20:36:15.738Z,22.60
2018-05-21T20:38:43.333Z,22.50
2018-05-21T20:41:10.850Z,22.50
2018-05-21T20:43:38.379Z,22.50
2018-05-21T20:46:06.069Z,22.50
2018-05-21T20:48:34.362Z,22.30
2018-05-21T20:51:01.944Z,22.30
2018-05-21T20:53:29.603Z,22.30
2018-05-21T20:55:57.153Z,22.30
2018-05-21T20:58:24.681Z,22.30
2018-05-21T21:00:52.331Z,22.20
2018-05-21T21:03:20.634Z,22.20
2018-05-21T21:05:48.163Z,22.20
2018-05-21T21:08:15.694Z,22.10
2018-05-21T21:10:43.376Z,22.20
2018-05-21T21:13:11.637Z,22.20
2018-05-21T21:15:39.182Z,22.20
2018-05-21T21:18:06.733Z,22.20
2018-05-21T21:20:34.258Z,22.20
2018-05-21T21:23:01.838Z,22.20
2018-05-21T21:25:29.378Z,22.20
2018-05-21T21:27:56.915Z,22.20
2018-05-21T21:30:25.218Z,22.20
2018-05-21T21:32:52.880Z,22.20
2018-05-21T21:35:20.336Z,22.30
2018-05-21T21:37:47.886Z,22.20
2018-05-21T21:40:15.410Z,22.20
2018-05-21T21:42:42.966Z,22.30
2018-05-21T21:45:10.494Z,22.30
2018-05-21T21:47:38.034Z,22.30
2018-05-21T21:50:05.583Z,22.20
2018-05-21T21:52:33.110Z,22.20
2018-05-21T21:55:01.428Z,22.20
2018-05-21T21:57:28.961Z,22.20
2018-05-21T21:59:57.255Z,22.00
2018-05-21T22:02:24.794Z,22.00
2018-05-21T22:04:52.351Z,21.90
2018-05-21T22:07:20.661Z,21.80
2018-05-21T22:09:48.186Z,21.80
2018-05-21T22:12:16.490Z,21.70
2018-05-21T22:14:44.118Z,21.70
2018-05-21T22:17:12.422Z,21.60
2018-05-21T22:19:40.719Z,21.50
2018-05-21T22:22:08.363Z,21.50
2018-05-21T22:24:35.914Z,21.50
2018-05-21T22:27:03.443Z,21.50
2018-05-21T22:29:31.743Z,21.40
2018-05-21T22:31:59.338Z,21.40
2018-05-21T22:34:26.874Z,21.40
2018-05-21T22:36:54.409Z,21.40
2018-05-21T22:39:22.067Z,21.40
2018-05-21T22:41:50.379Z,21.40
2018-05-21T22:44:17.899Z,21.40
2018-05-21T22:46:46.213Z,21.40
2018-05-21T22:49:13.755Z,21.30
2018-05-21T22:51:41.295Z,21.40
2018-05-21T22:54:08.830Z,21.40
2018-05-21T22:56:36.504Z,21.40
2018-05-21T22:59:04.801Z,21.40
2018-05-21T23:01:32.335Z,21.40
2018-05-21T23:03:59.892Z,21.40
2018-05-21T23:06:28.226Z,21.30
2018-05-21T23:08:55.755Z,21.30
2018-05-21T23:11:24.054Z,21.30
2018-05-21T23:13:51.689Z,21.30
2018-05-21T23:16:19.226Z,21.30
2018-05-21T23:18:46.745Z,21.30
2018-05-21T23:21:14.366Z,21.30
2018-05-21T23:23:41.910Z,21.30
2018-05-21T23:26:09.432Z,21.40
2018-05-21T23:28:37.013Z,21.40
2018-05-21T23:31:04.571Z,21.40
2018-05-21T23:33:32.109Z,21.30
2018-05-21T23:35:59.677Z,21.20
2018-05-21T23:38:27.224Z,21.20
2018-05-21T23:40:54.782Z,21.20
2018-05-21T23:43:22.306Z,21.20
2018-05-21T23:45:49.838Z,21.10
2018-05-21T23:48:18.138Z,21.10
2018-05-21T23:50:45.695Z,21.10
2018-05-21T23:53:13.223Z,21.10
2018-05-21T23:55:40.755Z,21.00
2018-05-21T23:58:08.304Z,21.00
